sensor_id;sensor_type;location;lat;lon;timestamp;temperature;humidity
69393;SHT31;56582;44.624;20.378;2022-11-23T00:01:31;8.43;86.03
69393;SHT31;56582;44.624;20.378;2022-11-23T00:04:01;8.44;85.44
69393;SHT31;56582;44.624;20.378;2022-11-23T00:06:27;8.47;85.89
69393;SHT31;56582;44.624;20.378;2022-11-23T00:08:53;8.43;86.12
69393;SHT31;56582;44.624;20.378;2022-11-23T00:11:20;8.50;85.63
69393;SHT31;56582;44.624;20.378;2022-11-23T00:13:46;8.47;86.04
69393;SHT31;56582;44.624;20.378;2022-11-23T00:16:17;8.49;85.93
69393;SHT31;56582;44.624;20.378;2022-11-23T00:18:43;8.52;85.72
69393;SHT31;56582;44.624;20.378;2022-11-23T00:21:11;8.46;85.78
69393;SHT31;56582;44.624;20.378;2022-11-23T00:23:37;8.30;86.16
69393;SHT31;56582;44.624;20.378;2022-11-23T00:26:04;8.36;85.63
69393;SHT31;56582;44.624;20.378;2022-11-23T00:28:30;8.25;86.15
69393;SHT31;56582;44.624;20.378;2022-11-23T00:30:56;8.19;86.49
69393;SHT31;56582;44.624;20.378;2022-11-23T00:33:21;8.22;86.15
69393;SHT31;56582;44.624;20.378;2022-11-23T00:35:47;8.19;85.90
69393;SHT31;56582;44.624;20.378;2022-11-23T00:38:12;8.25;85.56
69393;SHT31;56582;44.624;20.378;2022-11-23T00:40:38;8.09;86.39
69393;SHT31;56582;44.624;20.378;2022-11-23T00:43:04;8.12;85.90
69393;SHT31;56582;44.624;20.378;2022-11-23T00:45:30;7.94;86.88
69393;SHT31;56582;44.624;20.378;2022-11-23T00:47:55;7.98;86.80
69393;SHT31;56582;44.624;20.378;2022-11-23T00:50:21;7.91;87.18
69393;SHT31;56582;44.624;20.378;2022-11-23T00:52:46;7.86;87.13
69393;SHT31;56582;44.624;20.378;2022-11-23T00:55:11;7.89;87.37
69393;SHT31;56582;44.624;20.378;2022-11-23T00:57:37;7.95;87.15
69393;SHT31;56582;44.624;20.378;2022-11-23T01:00:04;7.95;86.95
69393;SHT31;56582;44.624;20.378;2022-11-23T01:02:33;7.85;87.39
69393;SHT31;56582;44.624;20.378;2022-11-23T01:04:59;7.91;87.18
69393;SHT31;56582;44.624;20.378;2022-11-23T01:07:27;7.88;87.45
69393;SHT31;56582;44.624;20.378;2022-11-23T01:09:54;8.01;87.29
69393;SHT31;56582;44.624;20.378;2022-11-23T01:12:20;7.98;87.34
69393;SHT31;56582;44.624;20.378;2022-11-23T01:14:45;7.91;87.44
69393;SHT31;56582;44.624;20.378;2022-11-23T01:17:11;7.95;87.11
69393;SHT31;56582;44.624;20.378;2022-11-23T01:19:37;7.95;87.29
69393;SHT31;56582;44.624;20.378;2022-11-23T01:22:02;7.96;87.67
69393;SHT31;56582;44.624;20.378;2022-11-23T01:24:28;7.94;87.80
69393;SHT31;56582;44.624;20.378;2022-11-23T01:26:54;7.96;87.74
69393;SHT31;56582;44.624;20.378;2022-11-23T01:29:23;8.02;87.54
69393;SHT31;56582;44.624;20.378;2022-11-23T01:31:48;8.16;87.32
69393;SHT31;56582;44.624;20.378;2022-11-23T01:34:15;8.10;87.25
69393;SHT31;56582;44.624;20.378;2022-11-23T01:36:41;8.12;87.41
69393;SHT31;56582;44.624;20.378;2022-11-23T01:39:07;8.10;87.60
69393;SHT31;56582;44.624;20.378;2022-11-23T01:41:36;8.12;87.50
69393;SHT31;56582;44.624;20.378;2022-11-23T01:44:25;8.12;87.29
69393;SHT31;56582;44.624;20.378;2022-11-23T01:46:51;8.13;87.51
69393;SHT31;56582;44.624;20.378;2022-11-23T01:49:17;8.22;87.37
69393;SHT31;56582;44.624;20.378;2022-11-23T01:51:44;8.17;87.37
69393;SHT31;56582;44.624;20.378;2022-11-23T01:54:14;8.13;87.99
69393;SHT31;56582;44.624;20.378;2022-11-23T01:56:55;8.19;87.49
69393;SHT31;56582;44.624;20.378;2022-11-23T01:59:22;8.21;87.18
69393;SHT31;56582;44.624;20.378;2022-11-23T02:01:48;8.17;86.97
69393;SHT31;56582;44.624;20.378;2022-11-23T02:04:18;8.30;86.58
69393;SHT31;56582;44.624;20.378;2022-11-23T02:06:45;8.33;86.65
69393;SHT31;56582;44.624;20.378;2022-11-23T02:09:11;8.13;87.19
69393;SHT31;56582;44.624;20.378;2022-11-23T02:11:38;8.07;87.46
69393;SHT31;56582;44.624;20.378;2022-11-23T02:14:03;8.15;87.71
69393;SHT31;56582;44.624;20.378;2022-11-23T02:16:29;8.12;87.20
69393;SHT31;56582;44.624;20.378;2022-11-23T02:18:54;8.16;87.35
69393;SHT31;56582;44.624;20.378;2022-11-23T02:21:20;8.10;87.78
69393;SHT31;56582;44.624;20.378;2022-11-23T02:24:11;8.21;87.38
69393;SHT31;56582;44.624;20.378;2022-11-23T02:26:36;8.07;87.86
69393;SHT31;56582;44.624;20.378;2022-11-23T02:31:34;8.09;88.04
69393;SHT31;56582;44.624;20.378;2022-11-23T02:34:00;8.32;87.15
69393;SHT31;56582;44.624;20.378;2022-11-23T02:36:42;8.17;87.74
69393;SHT31;56582;44.624;20.378;2022-11-23T02:41:50;8.23;87.41
69393;SHT31;56582;44.624;20.378;2022-11-23T02:46:51;8.37;87.33
69393;SHT31;56582;44.624;20.378;2022-11-23T02:49:17;8.33;87.40
69393;SHT31;56582;44.624;20.378;2022-11-23T02:51:42;8.30;87.45
69393;SHT31;56582;44.624;20.378;2022-11-23T02:54:08;8.21;87.70
69393;SHT31;56582;44.624;20.378;2022-11-23T02:56:34;8.23;87.68
69393;SHT31;56582;44.624;20.378;2022-11-23T02:58:59;8.15;88.24
69393;SHT31;56582;44.624;20.378;2022-11-23T03:01:25;8.19;87.90
69393;SHT31;56582;44.624;20.378;2022-11-23T03:03:50;8.19;88.06
69393;SHT31;56582;44.624;20.378;2022-11-23T03:06:16;8.26;87.99
69393;SHT31;56582;44.624;20.378;2022-11-23T03:08:41;8.22;88.31
69393;SHT31;56582;44.624;20.378;2022-11-23T03:11:07;8.30;87.89
69393;SHT31;56582;44.624;20.378;2022-11-23T03:13:32;8.32;88.01
69393;SHT31;56582;44.624;20.378;2022-11-23T03:15:57;8.33;87.99
69393;SHT31;56582;44.624;20.378;2022-11-23T03:18:24;8.26;88.31
69393;SHT31;56582;44.624;20.378;2022-11-23T03:20:50;8.43;87.78
69393;SHT31;56582;44.624;20.378;2022-11-23T03:23:15;8.36;88.03
69393;SHT31;56582;44.624;20.378;2022-11-23T03:25:40;8.25;88.41
69393;SHT31;56582;44.624;20.378;2022-11-23T03:28:06;8.30;88.33
69393;SHT31;56582;44.624;20.378;2022-11-23T03:30:31;8.40;87.86
69393;SHT31;56582;44.624;20.378;2022-11-23T03:32:57;8.34;88.36
69393;SHT31;56582;44.624;20.378;2022-11-23T03:35:22;8.52;87.61
69393;SHT31;56582;44.624;20.378;2022-11-23T03:37:48;8.37;88.38
69393;SHT31;56582;44.624;20.378;2022-11-23T03:40:13;8.49;87.93
69393;SHT31;56582;44.624;20.378;2022-11-23T03:42:39;8.42;87.95
69393;SHT31;56582;44.624;20.378;2022-11-23T03:45:05;8.52;87.69
69393;SHT31;56582;44.624;20.378;2022-11-23T03:47:31;8.56;87.61
69393;SHT31;56582;44.624;20.378;2022-11-23T03:49:56;8.60;87.33
69393;SHT31;56582;44.624;20.378;2022-11-23T03:52:22;8.53;87.71
69393;SHT31;56582;44.624;20.378;2022-11-23T03:54:47;8.56;87.73
69393;SHT31;56582;44.624;20.378;2022-11-23T03:57:13;8.47;87.83
69393;SHT31;56582;44.624;20.378;2022-11-23T03:59:38;8.53;87.97
69393;SHT31;56582;44.624;20.378;2022-11-23T04:02:04;8.57;87.59
69393;SHT31;56582;44.624;20.378;2022-11-23T04:04:30;8.64;87.43
69393;SHT31;56582;44.624;20.378;2022-11-23T04:06:55;8.65;87.35
69393;SHT31;56582;44.624;20.378;2022-11-23T04:09:21;8.74;86.94
69393;SHT31;56582;44.624;20.378;2022-11-23T04:11:47;8.64;87.29
69393;SHT31;56582;44.624;20.378;2022-11-23T04:14:12;8.61;87.22
69393;SHT31;56582;44.624;20.378;2022-11-23T04:16:37;8.67;86.87
69393;SHT31;56582;44.624;20.378;2022-11-23T04:19:03;8.74;86.73
69393;SHT31;56582;44.624;20.378;2022-11-23T04:21:28;8.70;86.94
69393;SHT31;56582;44.624;20.378;2022-11-23T04:23:54;8.81;86.86
69393;SHT31;56582;44.624;20.378;2022-11-23T04:26:19;8.78;88.16
69393;SHT31;56582;44.624;20.378;2022-11-23T04:28:45;8.95;90.49
69393;SHT31;56582;44.624;20.378;2022-11-23T04:31:10;9.00;90.41
69393;SHT31;56582;44.624;20.378;2022-11-23T04:33:35;9.33;92.83
69393;SHT31;56582;44.624;20.378;2022-11-23T04:36:01;9.00;88.14
69393;SHT31;56582;44.624;20.378;2022-11-23T04:38:26;9.02;90.19
69393;SHT31;56582;44.624;20.378;2022-11-23T04:40:52;9.02;88.27
69393;SHT31;56582;44.624;20.378;2022-11-23T04:43:17;8.91;86.54
69393;SHT31;56582;44.624;20.378;2022-11-23T04:45:43;9.04;87.54
69393;SHT31;56582;44.624;20.378;2022-11-23T04:48:09;9.08;86.40
69393;SHT31;56582;44.624;20.378;2022-11-23T04:50:34;9.05;85.63
69393;SHT31;56582;44.624;20.378;2022-11-23T04:53:02;8.89;86.36
69393;SHT31;56582;44.624;20.378;2022-11-23T04:55:27;8.81;86.70
69393;SHT31;56582;44.624;20.378;2022-11-23T04:57:53;8.95;86.55
69393;SHT31;56582;44.624;20.378;2022-11-23T05:00:18;8.87;86.32
69393;SHT31;56582;44.624;20.378;2022-11-23T05:02:44;9.04;87.36
69393;SHT31;56582;44.624;20.378;2022-11-23T05:05:09;9.07;87.66
69393;SHT31;56582;44.624;20.378;2022-11-23T05:07:35;8.97;87.81
69393;SHT31;56582;44.624;20.378;2022-11-23T05:10:02;8.91;87.76
69393;SHT31;56582;44.624;20.378;2022-11-23T05:12:27;8.92;88.10
69393;SHT31;56582;44.624;20.378;2022-11-23T05:14:53;8.95;87.41
69393;SHT31;56582;44.624;20.378;2022-11-23T05:17:18;8.94;87.80
69393;SHT31;56582;44.624;20.378;2022-11-23T05:19:43;8.85;87.10
69393;SHT31;56582;44.624;20.378;2022-11-23T05:22:09;8.75;87.69
69393;SHT31;56582;44.624;20.378;2022-11-23T05:24:35;8.74;87.41
69393;SHT31;56582;44.624;20.378;2022-11-23T05:27:00;8.73;87.63
69393;SHT31;56582;44.624;20.378;2022-11-23T05:29:25;8.81;86.76
69393;SHT31;56582;44.624;20.378;2022-11-23T05:31:51;8.75;86.92
69393;SHT31;56582;44.624;20.378;2022-11-23T05:34:16;8.74;87.49
69393;SHT31;56582;44.624;20.378;2022-11-23T05:36:42;8.71;86.92
69393;SHT31;56582;44.624;20.378;2022-11-23T05:39:07;8.54;87.40
69393;SHT31;56582;44.624;20.378;2022-11-23T05:41:33;8.54;87.41
69393;SHT31;56582;44.624;20.378;2022-11-23T05:43:58;8.50;87.53
69393;SHT31;56582;44.624;20.378;2022-11-23T05:46:24;8.49;87.35
69393;SHT31;56582;44.624;20.378;2022-11-23T05:48:49;8.63;87.01
69393;SHT31;56582;44.624;20.378;2022-11-23T05:51:15;8.67;86.88
69393;SHT31;56582;44.624;20.378;2022-11-23T05:53:40;8.54;86.84
69393;SHT31;56582;44.624;20.378;2022-11-23T05:56:06;8.61;86.95
69393;SHT31;56582;44.624;20.378;2022-11-23T05:58:31;8.50;86.92
69393;SHT31;56582;44.624;20.378;2022-11-23T06:00:58;8.47;87.04
69393;SHT31;56582;44.624;20.378;2022-11-23T06:03:24;8.50;87.30
69393;SHT31;56582;44.624;20.378;2022-11-23T06:05:49;8.46;87.33
69393;SHT31;56582;44.624;20.378;2022-11-23T06:08:15;8.46;87.11
69393;SHT31;56582;44.624;20.378;2022-11-23T06:10:40;8.52;87.31
69393;SHT31;56582;44.624;20.378;2022-11-23T06:13:05;8.53;87.51
69393;SHT31;56582;44.624;20.378;2022-11-23T06:15:31;8.68;87.25
69393;SHT31;56582;44.624;20.378;2022-11-23T06:18:00;8.49;87.77
69393;SHT31;56582;44.624;20.378;2022-11-23T06:20:27;8.54;86.96
69393;SHT31;56582;44.624;20.378;2022-11-23T06:22:53;8.56;87.11
69393;SHT31;56582;44.624;20.378;2022-11-23T06:25:19;8.64;86.91
69393;SHT31;56582;44.624;20.378;2022-11-23T06:27:55;8.53;87.59
69393;SHT31;56582;44.624;20.378;2022-11-23T06:30:22;8.61;87.43
69393;SHT31;56582;44.624;20.378;2022-11-23T06:32:47;8.64;87.56
69393;SHT31;56582;44.624;20.378;2022-11-23T06:35:13;8.74;87.50
69393;SHT31;56582;44.624;20.378;2022-11-23T06:37:38;8.73;87.77
69393;SHT31;56582;44.624;20.378;2022-11-23T06:40:04;8.70;87.70
69393;SHT31;56582;44.624;20.378;2022-11-23T06:42:29;8.73;87.77
69393;SHT31;56582;44.624;20.378;2022-11-23T06:44:55;8.70;88.22
69393;SHT31;56582;44.624;20.378;2022-11-23T06:47:20;8.89;86.98
69393;SHT31;56582;44.624;20.378;2022-11-23T06:49:46;8.85;87.67
69393;SHT31;56582;44.624;20.378;2022-11-23T06:52:11;8.78;87.82
69393;SHT31;56582;44.624;20.378;2022-11-23T06:54:38;8.75;87.47
69393;SHT31;56582;44.624;20.378;2022-11-23T06:57:06;8.88;87.51
69393;SHT31;56582;44.624;20.378;2022-11-23T06:59:32;8.75;87.86
69393;SHT31;56582;44.624;20.378;2022-11-23T07:01:57;8.70;88.20
69393;SHT31;56582;44.624;20.378;2022-11-23T07:04:23;8.73;88.21
69393;SHT31;56582;44.624;20.378;2022-11-23T07:06:48;8.87;87.64
69393;SHT31;56582;44.624;20.378;2022-11-23T07:09:14;9.01;87.71
69393;SHT31;56582;44.624;20.378;2022-11-23T07:11:39;8.81;89.01
69393;SHT31;56582;44.624;20.378;2022-11-23T07:14:05;8.87;88.95
69393;SHT31;56582;44.624;20.378;2022-11-23T07:16:30;8.73;89.64
69393;SHT31;56582;44.624;20.378;2022-11-23T07:18:56;8.65;90.36
69393;SHT31;56582;44.624;20.378;2022-11-23T07:21:22;8.73;90.52
69393;SHT31;56582;44.624;20.378;2022-11-23T07:23:47;8.63;90.92
69393;SHT31;56582;44.624;20.378;2022-11-23T07:26:13;8.67;91.36
69393;SHT31;56582;44.624;20.378;2022-11-23T07:28:38;8.65;91.49
69393;SHT31;56582;44.624;20.378;2022-11-23T07:31:04;8.78;91.89
69393;SHT31;56582;44.624;20.378;2022-11-23T07:33:29;8.78;91.39
69393;SHT31;56582;44.624;20.378;2022-11-23T07:35:55;8.61;92.01
69393;SHT31;56582;44.624;20.378;2022-11-23T07:38:20;8.50;92.32
69393;SHT31;56582;44.624;20.378;2022-11-23T07:40:47;8.47;92.74
69393;SHT31;56582;44.624;20.378;2022-11-23T07:43:13;8.46;92.72
69393;SHT31;56582;44.624;20.378;2022-11-23T07:45:39;8.59;92.18
69393;SHT31;56582;44.624;20.378;2022-11-23T07:48:08;8.67;92.23
69393;SHT31;56582;44.624;20.378;2022-11-23T07:50:35;8.84;91.91
69393;SHT31;56582;44.624;20.378;2022-11-23T07:53:02;9.00;91.99
69393;SHT31;56582;44.624;20.378;2022-11-23T07:55:28;8.82;92.07
69393;SHT31;56582;44.624;20.378;2022-11-23T07:57:55;8.68;92.83
69393;SHT31;56582;44.624;20.378;2022-11-23T08:00:24;8.60;93.52
69393;SHT31;56582;44.624;20.378;2022-11-23T08:02:50;8.56;93.78
69393;SHT31;56582;44.624;20.378;2022-11-23T08:05:16;8.82;93.78
69393;SHT31;56582;44.624;20.378;2022-11-23T08:07:41;8.60;94.17
69393;SHT31;56582;44.624;20.378;2022-11-23T08:10:07;8.68;94.05
69393;SHT31;56582;44.624;20.378;2022-11-23T08:12:33;8.59;94.55
69393;SHT31;56582;44.624;20.378;2022-11-23T08:14:59;8.64;94.62
69393;SHT31;56582;44.624;20.378;2022-11-23T08:17:24;8.52;95.04
69393;SHT31;56582;44.624;20.378;2022-11-23T08:19:50;8.47;95.44
69393;SHT31;56582;44.624;20.378;2022-11-23T08:22:15;8.39;95.76
69393;SHT31;56582;44.624;20.378;2022-11-23T08:24:41;8.46;95.84
69393;SHT31;56582;44.624;20.378;2022-11-23T08:27:06;8.47;96.06
69393;SHT31;56582;44.624;20.378;2022-11-23T08:29:32;8.70;95.87
69393;SHT31;56582;44.624;20.378;2022-11-23T08:31:57;8.78;95.44
69393;SHT31;56582;44.624;20.378;2022-11-23T08:34:23;8.75;95.24
69393;SHT31;56582;44.624;20.378;2022-11-23T08:36:48;8.84;95.42
69393;SHT31;56582;44.624;20.378;2022-11-23T08:39:13;8.87;95.79
69393;SHT31;56582;44.624;20.378;2022-11-23T08:41:40;8.94;95.44
69393;SHT31;56582;44.624;20.378;2022-11-23T08:44:06;9.04;95.99
69393;SHT31;56582;44.624;20.378;2022-11-23T08:46:34;9.25;95.35
69393;SHT31;56582;44.624;20.378;2022-11-23T08:48:59;9.39;96.03
69393;SHT31;56582;44.624;20.378;2022-11-23T08:51:25;9.50;95.57
69393;SHT31;56582;44.624;20.378;2022-11-23T08:53:51;9.79;96.24
69393;SHT31;56582;44.624;20.378;2022-11-23T08:56:17;10.11;95.94
69393;SHT31;56582;44.624;20.378;2022-11-23T08:58:42;10.19;95.98
69393;SHT31;56582;44.624;20.378;2022-11-23T09:01:09;10.12;94.25
69393;SHT31;56582;44.624;20.378;2022-11-23T09:03:34;10.19;94.31
69393;SHT31;56582;44.624;20.378;2022-11-23T09:06:00;10.11;94.38
69393;SHT31;56582;44.624;20.378;2022-11-23T09:08:26;10.05;93.53
69393;SHT31;56582;44.624;20.378;2022-11-23T09:10:52;10.12;94.41
69393;SHT31;56582;44.624;20.378;2022-11-23T09:13:17;10.11;94.67
69393;SHT31;56582;44.624;20.378;2022-11-23T09:15:43;10.19;94.60
69393;SHT31;56582;44.624;20.378;2022-11-23T09:18:08;10.19;94.66
69393;SHT31;56582;44.624;20.378;2022-11-23T09:20:34;10.37;95.09
69393;SHT31;56582;44.624;20.378;2022-11-23T09:22:59;10.44;94.79
69393;SHT31;56582;44.624;20.378;2022-11-23T09:25:25;10.45;94.75
69393;SHT31;56582;44.624;20.378;2022-11-23T09:27:56;10.39;93.12
69393;SHT31;56582;44.624;20.378;2022-11-23T09:30:23;10.39;92.91
69393;SHT31;56582;44.624;20.378;2022-11-23T09:32:48;10.41;92.68
69393;SHT31;56582;44.624;20.378;2022-11-23T09:35:13;10.35;92.74
69393;SHT31;56582;44.624;20.378;2022-11-23T09:37:39;10.58;91.52
69393;SHT31;56582;44.624;20.378;2022-11-23T09:40:05;10.62;91.63
69393;SHT31;56582;44.624;20.378;2022-11-23T09:45:25;11.00;89.98
69393;SHT31;56582;44.624;20.378;2022-11-23T09:53:19;11.27;90.20
69393;SHT31;56582;44.624;20.378;2022-11-23T09:55:48;11.39;90.19
69393;SHT31;56582;44.624;20.378;2022-11-23T09:58:20;11.14;89.72
69393;SHT31;56582;44.624;20.378;2022-11-23T10:03:23;11.14;89.66
69393;SHT31;56582;44.624;20.378;2022-11-23T10:16:58;11.18;89.52
69393;SHT31;56582;44.624;20.378;2022-11-23T10:22:15;11.31;89.28
69393;SHT31;56582;44.624;20.378;2022-11-23T10:24:45;11.21;89.41
69393;SHT31;56582;44.624;20.378;2022-11-23T10:27:20;11.11;89.14
69393;SHT31;56582;44.624;20.378;2022-11-23T10:29:47;10.66;89.25
69393;SHT31;56582;44.624;20.378;2022-11-23T10:35:03;10.25;90.13
69393;SHT31;56582;44.624;20.378;2022-11-23T10:37:31;10.15;90.73
69393;SHT31;56582;44.624;20.378;2022-11-23T10:39:57;9.80;90.22
69393;SHT31;56582;44.624;20.378;2022-11-23T10:42:42;9.87;90.58
69393;SHT31;56582;44.624;20.378;2022-11-23T10:45:20;9.91;89.96
69393;SHT31;56582;44.624;20.378;2022-11-23T10:47:57;9.67;90.60
69393;SHT31;56582;44.624;20.378;2022-11-23T10:50:27;9.35;91.34
69393;SHT31;56582;44.624;20.378;2022-11-23T10:53:00;9.44;91.53
69393;SHT31;56582;44.624;20.378;2022-11-23T10:55:53;9.36;91.43
69393;SHT31;56582;44.624;20.378;2022-11-23T10:58:32;9.36;91.35
69393;SHT31;56582;44.624;20.378;2022-11-23T11:01:10;9.35;92.35
69393;SHT31;56582;44.624;20.378;2022-11-23T11:03:36;9.28;92.11
69393;SHT31;56582;44.624;20.378;2022-11-23T11:06:02;9.15;92.64
69393;SHT31;56582;44.624;20.378;2022-11-23T11:08:49;9.00;92.80
69393;SHT31;56582;44.624;20.378;2022-11-23T11:11:38;8.80;93.37
69393;SHT31;56582;44.624;20.378;2022-11-23T11:14:21;8.78;93.66
69393;SHT31;56582;44.624;20.378;2022-11-23T11:16:51;9.00;93.32
69393;SHT31;56582;44.624;20.378;2022-11-23T11:19:33;8.65;93.28
69393;SHT31;56582;44.624;20.378;2022-11-23T11:22:42;8.52;94.09
69393;SHT31;56582;44.624;20.378;2022-11-23T11:24:48;8.59;94.20
69393;SHT31;56582;44.624;20.378;2022-11-23T11:27:16;8.47;94.60
69393;SHT31;56582;44.624;20.378;2022-11-23T11:34:48;8.50;93.65
69393;SHT31;56582;44.624;20.378;2022-11-23T11:37:26;8.15;95.50
69393;SHT31;56582;44.624;20.378;2022-11-23T11:40:20;8.34;95.59
69393;SHT31;56582;44.624;20.378;2022-11-23T11:42:58;8.43;95.47
69393;SHT31;56582;44.624;20.378;2022-11-23T11:45:32;8.47;95.31
69393;SHT31;56582;44.624;20.378;2022-11-23T11:48:17;8.65;95.24
69393;SHT31;56582;44.624;20.378;2022-11-23T11:50:51;8.37;96.02
69393;SHT31;56582;44.624;20.378;2022-11-23T11:53:31;8.57;96.24
69393;SHT31;56582;44.624;20.378;2022-11-23T11:56:03;8.61;96.22
69393;SHT31;56582;44.624;20.378;2022-11-23T11:58:33;8.68;95.13
69393;SHT31;56582;44.624;20.378;2022-11-23T12:01:11;8.65;95.00
69393;SHT31;56582;44.624;20.378;2022-11-23T12:03:45;8.61;94.77
69393;SHT31;56582;44.624;20.378;2022-11-23T12:06:20;8.64;95.00
69393;SHT31;56582;44.624;20.378;2022-11-23T12:09:02;8.81;95.04
69393;SHT31;56582;44.624;20.378;2022-11-23T12:11:31;8.64;94.55
69393;SHT31;56582;44.624;20.378;2022-11-23T12:14:02;8.57;94.56
69393;SHT31;56582;44.624;20.378;2022-11-23T12:17:07;8.73;93.99
69393;SHT31;56582;44.624;20.378;2022-11-23T12:19:40;8.60;94.18
69393;SHT31;56582;44.624;20.378;2022-11-23T12:22:35;8.59;93.73
69393;SHT31;56582;44.624;20.378;2022-11-23T12:35:52;8.91;92.54
69393;SHT31;56582;44.624;20.378;2022-11-23T12:51:53;8.32;93.75
69393;SHT31;56582;44.624;20.378;2022-11-23T12:57:23;8.21;94.30
69393;SHT31;56582;44.624;20.378;2022-11-23T13:00:05;8.16;94.13
69393;SHT31;56582;44.624;20.378;2022-11-23T13:18:50;8.21;87.33
69393;SHT31;56582;44.624;20.378;2022-11-23T13:21:30;8.05;87.18
69393;SHT31;56582;44.624;20.378;2022-11-23T13:23:58;7.99;87.30
69393;SHT31;56582;44.624;20.378;2022-11-23T13:26:25;7.92;87.47
69393;SHT31;56582;44.624;20.378;2022-11-23T13:28:53;7.82;87.44
69393;SHT31;56582;44.624;20.378;2022-11-23T13:31:23;7.84;87.05
69393;SHT31;56582;44.624;20.378;2022-11-23T13:33:52;7.82;86.83
69393;SHT31;56582;44.624;20.378;2022-11-23T13:38:54;7.67;87.26
69393;SHT31;56582;44.624;20.378;2022-11-23T13:44:10;7.68;87.22
69393;SHT31;56582;44.624;20.378;2022-11-23T13:46:36;7.67;87.72
69393;SHT31;56582;44.624;20.378;2022-11-23T13:49:02;7.63;86.86
69393;SHT31;56582;44.624;20.378;2022-11-23T13:51:32;7.36;87.27
69393;SHT31;56582;44.624;20.378;2022-11-23T13:54:04;7.28;87.92
69393;SHT31;56582;44.624;20.378;2022-11-23T13:56:39;7.46;88.19
69393;SHT31;56582;44.624;20.378;2022-11-23T14:04:40;7.24;88.40
69393;SHT31;56582;44.624;20.378;2022-11-23T14:07:14;7.31;88.90
69393;SHT31;56582;44.624;20.378;2022-11-23T14:15:12;7.10;85.54
69393;SHT31;56582;44.624;20.378;2022-11-23T14:20:50;6.75;86.86
69393;SHT31;56582;44.624;20.378;2022-11-23T14:26:42;6.76;87.46
69393;SHT31;56582;44.624;20.378;2022-11-23T14:29:19;6.71;87.51
69393;SHT31;56582;44.624;20.378;2022-11-23T14:37:50;6.47;88.21
69393;SHT31;56582;44.624;20.378;2022-11-23T14:43:14;6.37;88.83
69393;SHT31;56582;44.624;20.378;2022-11-23T14:45:43;6.37;88.96
69393;SHT31;56582;44.624;20.378;2022-11-23T14:48:29;6.41;88.54
69393;SHT31;56582;44.624;20.378;2022-11-23T14:50:57;6.34;89.06
69393;SHT31;56582;44.624;20.378;2022-11-23T14:53:31;6.33;89.17
69393;SHT31;56582;44.624;20.378;2022-11-23T14:55:58;6.37;88.94
69393;SHT31;56582;44.624;20.378;2022-11-23T14:58:25;6.31;89.30
69393;SHT31;56582;44.624;20.378;2022-11-23T15:00:58;6.36;89.30
69393;SHT31;56582;44.624;20.378;2022-11-23T15:03:27;6.30;89.30
69393;SHT31;56582;44.624;20.378;2022-11-23T15:06:00;6.28;89.56
69393;SHT31;56582;44.624;20.378;2022-11-23T15:09:00;6.34;89.74
69393;SHT31;56582;44.624;20.378;2022-11-23T15:11:27;6.51;88.69
69393;SHT31;56582;44.624;20.378;2022-11-23T15:13:54;6.61;89.29
69393;SHT31;56582;44.624;20.378;2022-11-23T15:16:22;6.42;89.21
69393;SHT31;56582;44.624;20.378;2022-11-23T15:18:47;6.36;90.24
69393;SHT31;56582;44.624;20.378;2022-11-23T15:23:53;6.36;89.88
69393;SHT31;56582;44.624;20.378;2022-11-23T15:26:25;6.37;90.20
69393;SHT31;56582;44.624;20.378;2022-11-23T15:28:50;6.27;90.69
69393;SHT31;56582;44.624;20.378;2022-11-23T15:31:35;6.30;90.69
69393;SHT31;56582;44.624;20.378;2022-11-23T15:34:21;6.20;90.92
69393;SHT31;56582;44.624;20.378;2022-11-23T15:36:47;6.09;91.14
69393;SHT31;56582;44.624;20.378;2022-11-23T15:39:18;6.06;90.64
69393;SHT31;56582;44.624;20.378;2022-11-23T15:41:44;6.03;90.68
69393;SHT31;56582;44.624;20.378;2022-11-23T15:44:16;5.90;90.05
69393;SHT31;56582;44.624;20.378;2022-11-23T15:46:46;5.92;90.88
69393;SHT31;56582;44.624;20.378;2022-11-23T15:49:14;5.83;90.72
69393;SHT31;56582;44.624;20.378;2022-11-23T15:51:42;6.09;90.59
69393;SHT31;56582;44.624;20.378;2022-11-23T15:54:20;6.09;90.15
69393;SHT31;56582;44.624;20.378;2022-11-23T15:56:48;6.21;90.19
69393;SHT31;56582;44.624;20.378;2022-11-23T16:01:59;6.28;90.22
69393;SHT31;56582;44.624;20.378;2022-11-23T16:04:27;6.07;90.50
69393;SHT31;56582;44.624;20.378;2022-11-23T16:06:53;6.13;90.60
69393;SHT31;56582;44.624;20.378;2022-11-23T16:09:36;5.83;91.18
69393;SHT31;56582;44.624;20.378;2022-11-23T16:12:04;5.80;91.17
69393;SHT31;56582;44.624;20.378;2022-11-23T16:14:42;5.72;89.83
69393;SHT31;56582;44.624;20.378;2022-11-23T16:17:34;5.65;90.27
69393;SHT31;56582;44.624;20.378;2022-11-23T16:20:02;5.59;90.31
69393;SHT31;56582;44.624;20.378;2022-11-23T16:22:35;5.55;90.82
69393;SHT31;56582;44.624;20.378;2022-11-23T16:25:29;5.48;90.67
69393;SHT31;56582;44.624;20.378;2022-11-23T16:28:02;5.37;91.01
69393;SHT31;56582;44.624;20.378;2022-11-23T16:30:40;5.30;91.51
69393;SHT31;56582;44.624;20.378;2022-11-23T16:33:15;5.26;92.26
69393;SHT31;56582;44.624;20.378;2022-11-23T16:35:42;5.39;92.12
69393;SHT31;56582;44.624;20.378;2022-11-23T16:38:07;5.63;91.46
69393;SHT31;56582;44.624;20.378;2022-11-23T16:40:33;5.72;90.81
69393;SHT31;56582;44.624;20.378;2022-11-23T16:42:59;5.66;91.12
69393;SHT31;56582;44.624;20.378;2022-11-23T16:45:25;5.48;91.82
69393;SHT31;56582;44.624;20.378;2022-11-23T16:47:54;5.47;91.96
69393;SHT31;56582;44.624;20.378;2022-11-23T16:50:21;5.30;92.20
69393;SHT31;56582;44.624;20.378;2022-11-23T16:52:47;5.58;92.14
69393;SHT31;56582;44.624;20.378;2022-11-23T16:55:12;5.37;92.13
69393;SHT31;56582;44.624;20.378;2022-11-23T16:57:39;5.28;92.71
69393;SHT31;56582;44.624;20.378;2022-11-23T17:00:10;5.51;92.26
69393;SHT31;56582;44.624;20.378;2022-11-23T17:02:36;5.42;92.47
69393;SHT31;56582;44.624;20.378;2022-11-23T17:05:02;5.65;91.24
69393;SHT31;56582;44.624;20.378;2022-11-23T17:07:28;5.60;91.27
69393;SHT31;56582;44.624;20.378;2022-11-23T17:09:53;5.63;90.99
69393;SHT31;56582;44.624;20.378;2022-11-23T17:12:20;5.90;90.64
69393;SHT31;56582;44.624;20.378;2022-11-23T17:14:47;5.85;89.78
69393;SHT31;56582;44.624;20.378;2022-11-23T17:17:17;5.59;90.51
69393;SHT31;56582;44.624;20.378;2022-11-23T17:19:43;5.70;91.11
69393;SHT31;56582;44.624;20.378;2022-11-23T17:22:12;5.48;91.25
69393;SHT31;56582;44.624;20.378;2022-11-23T17:24:38;5.32;91.77
69393;SHT31;56582;44.624;20.378;2022-11-23T17:27:03;5.47;92.14
69393;SHT31;56582;44.624;20.378;2022-11-23T17:29:29;5.39;92.23
69393;SHT31;56582;44.624;20.378;2022-11-23T17:31:54;5.56;91.53
69393;SHT31;56582;44.624;20.378;2022-11-23T17:34:20;5.34;92.57
69393;SHT31;56582;44.624;20.378;2022-11-23T17:36:46;5.51;91.97
69393;SHT31;56582;44.624;20.378;2022-11-23T17:39:23;5.44;92.44